createdAt,value
2023-08-27T00:00:04.798Z,0.00
2023-08-27T00:01:05.885Z,0.02
2023-08-27T00:02:05.055Z,0.00
2023-08-27T00:03:05.101Z,0.00
2023-08-27T00:04:05.205Z,0.00
2023-08-27T00:05:05.285Z,0.02
2023-08-27T00:06:05.361Z,0.00
2023-08-27T00:07:08.957Z,0.00
2023-08-27T00:08:04.628Z,0.00
2023-08-27T00:09:04.732Z,0.00
2023-08-27T00:10:05.814Z,0.00
2023-08-27T00:11:03.944Z,0.00
2023-08-27T00:12:05.058Z,0.00
2023-08-27T00:13:05.199Z,0.00
2023-08-27T00:14:04.323Z,0.00
2023-08-27T00:15:05.400Z,0.00
2023-08-27T00:16:05.571Z,0.02
2023-08-27T00:17:05.667Z,0.00
2023-08-27T00:18:04.747Z,0.00
2023-08-27T00:19:03.897Z,0.00
2023-08-27T00:20:04.023Z,0.02
2023-08-27T00:21:04.098Z,0.00
2023-08-27T00:22:04.243Z,0.00
2023-08-27T00:23:08.285Z,0.02
2023-08-27T00:24:06.836Z,0.00
2023-08-27T00:25:05.518Z,0.00
2023-08-27T00:26:03.643Z,0.00
2023-08-27T00:27:03.787Z,0.00
2023-08-27T00:28:03.884Z,0.00
2023-08-27T00:29:04.044Z,0.00
2023-08-27T00:30:04.161Z,0.00
2023-08-27T00:31:04.459Z,0.02
2023-08-27T00:32:15.313Z,0.00
2023-08-27T00:33:05.509Z,0.02
2023-08-27T00:34:04.541Z,0.00
2023-08-27T00:35:03.672Z,0.02
2023-08-27T00:36:03.827Z,0.02
2023-08-27T00:37:04.931Z,0.00
2023-08-27T00:38:05.051Z,0.00
2023-08-27T00:39:04.253Z,0.02
2023-08-27T00:40:05.282Z,0.00
2023-08-27T00:41:03.445Z,0.02
2023-08-27T00:42:03.585Z,0.00
2023-08-27T00:43:04.694Z,0.00
2023-08-27T00:44:03.828Z,0.00
2023-08-27T00:45:03.936Z,0.00
2023-08-27T00:46:04.132Z,0.00
2023-08-27T00:47:04.217Z,0.00
2023-08-27T00:48:05.308Z,0.02
2023-08-27T00:49:04.348Z,0.00
2023-08-27T00:50:04.483Z,0.00
2023-08-27T00:51:03.629Z,0.00
2023-08-27T00:52:03.818Z,0.00
2023-08-27T00:53:04.845Z,0.00
2023-08-27T00:54:05.022Z,0.00
2023-08-27T00:55:05.118Z,0.02
2023-08-27T00:56:04.247Z,0.00
2023-08-27T00:57:04.336Z,0.02
2023-08-27T00:58:03.532Z,0.02
2023-08-27T00:59:03.660Z,0.00
2023-08-27T01:00:03.788Z,0.00
2023-08-27T01:01:04.822Z,0.00
2023-08-27T01:02:04.991Z,0.02
2023-08-27T01:03:05.124Z,0.02
2023-08-27T01:04:04.178Z,0.02
2023-08-27T01:05:03.330Z,0.00
2023-08-27T01:06:03.474Z,0.00
2023-08-27T01:07:03.626Z,0.00
2023-08-27T01:08:03.723Z,0.00
2023-08-27T01:09:03.827Z,0.00
2023-08-27T01:10:03.988Z,0.00
2023-08-27T01:11:03.095Z,0.00
2023-08-27T01:12:03.160Z,0.00
2023-08-27T01:13:04.252Z,0.00
2023-08-27T01:14:03.372Z,0.00
2023-08-27T01:15:04.480Z,0.00
2023-08-27T01:16:04.644Z,0.00
2023-08-27T01:17:04.768Z,0.00
2023-08-27T01:18:04.925Z,0.02
2023-08-27T01:19:02.955Z,0.00
2023-08-27T01:20:03.095Z,0.02
2023-08-27T01:21:04.233Z,0.00
2023-08-27T01:22:04.335Z,0.02
2023-08-27T01:23:04.463Z,0.00
2023-08-27T01:24:04.609Z,0.00
2023-08-27T01:25:04.757Z,0.00
2023-08-27T01:26:02.860Z,0.02
2023-08-27T01:27:03.038Z,0.00
2023-08-27T01:28:04.123Z,0.02
2023-08-27T01:29:04.205Z,0.00
2023-08-27T01:30:03.354Z,0.00
2023-08-27T01:31:04.482Z,0.00
2023-08-27T01:32:03.637Z,0.00
2023-08-27T01:33:03.949Z,0.00
2023-08-27T01:34:02.907Z,0.02
2023-08-27T01:35:02.969Z,0.00
2023-08-27T01:36:04.092Z,0.00
2023-08-27T01:37:04.196Z,0.02
2023-08-27T01:38:03.351Z,0.00
2023-08-27T01:39:04.425Z,0.00
2023-08-27T01:40:04.538Z,0.02
2023-08-27T01:41:03.662Z,0.02
2023-08-27T01:42:02.878Z,0.02
2023-08-27T01:43:03.957Z,0.00
2023-08-27T01:44:04.221Z,0.02
2023-08-27T01:45:03.251Z,0.02
2023-08-27T01:46:04.320Z,0.00
2023-08-27T01:47:04.446Z,0.00
2023-08-27T01:48:02.624Z,0.00
2023-08-27T01:49:02.700Z,0.00
2023-08-27T01:50:02.788Z,0.00
2023-08-27T01:51:02.962Z,0.00
2023-08-27T01:52:03.034Z,0.00
2023-08-27T01:53:03.173Z,0.00
2023-08-27T01:54:04.353Z,0.02
2023-08-27T01:55:04.369Z,0.00
2023-08-27T01:56:02.497Z,0.00
2023-08-27T01:57:02.600Z,0.00
2023-08-27T01:58:02.739Z,0.00
2023-08-27T01:59:02.955Z,0.00
2023-08-27T02:00:03.104Z,0.00
2023-08-27T02:01:03.270Z,0.00
2023-08-27T02:02:04.319Z,0.00
2023-08-27T02:03:02.701Z,0.02
2023-08-27T02:04:02.605Z,0.00
2023-08-27T02:05:02.690Z,0.00
2023-08-27T02:06:02.781Z,0.02
2023-08-27T02:07:02.913Z,0.00
2023-08-27T02:08:03.068Z,0.00
2023-08-27T02:09:03.164Z,0.02
2023-08-27T02:10:02.232Z,0.00
2023-08-27T02:11:02.355Z,0.00
2023-08-27T02:12:02.460Z,0.02
2023-08-27T02:13:02.798Z,0.02
2023-08-27T02:14:02.746Z,0.00
2023-08-27T02:15:02.891Z,0.00
2023-08-27T02:16:03.014Z,0.00
2023-08-27T02:17:03.133Z,0.00
2023-08-27T02:18:02.321Z,0.00
2023-08-27T02:19:02.345Z,0.00
2023-08-27T02:20:02.467Z,0.02
2023-08-27T02:21:02.601Z,0.00
2023-08-27T02:22:02.756Z,0.00
2023-08-27T02:23:02.897Z,0.00
2023-08-27T02:24:03.005Z,0.00
2023-08-27T02:25:02.140Z,0.00
2023-08-27T02:26:02.237Z,0.02
2023-08-27T02:27:02.376Z,0.06
2023-08-27T02:28:02.585Z,0.00
2023-08-27T02:29:02.673Z,0.00
2023-08-27T02:30:02.828Z,0.00
2023-08-27T02:31:03.102Z,0.02
2023-08-27T02:32:02.029Z,0.00
2023-08-27T02:33:02.629Z,0.00
2023-08-27T02:34:02.353Z,0.00
2023-08-27T02:35:02.444Z,0.02
2023-08-27T02:36:02.596Z,0.00
2023-08-27T02:37:02.771Z,0.02
2023-08-27T02:38:01.839Z,0.00
2023-08-27T02:39:02.024Z,0.02
2023-08-27T02:40:02.143Z,0.00
2023-08-27T02:41:02.343Z,0.00
2023-08-27T02:42:02.450Z,0.02
2023-08-27T02:43:02.647Z,0.00
2023-08-27T02:44:02.769Z,0.00
2023-08-27T02:45:01.874Z,0.00
2023-08-27T02:46:02.085Z,0.02
2023-08-27T02:47:02.168Z,0.00
2023-08-27T02:48:02.352Z,0.00
2023-08-27T02:49:02.455Z,0.00
2023-08-27T02:50:02.784Z,0.02
2023-08-27T02:51:01.702Z,0.00
2023-08-27T02:52:01.831Z,0.00
2023-08-27T02:53:02.905Z,0.00
2023-08-27T02:54:03.056Z,0.02
2023-08-27T02:55:03.174Z,0.00
2023-08-27T02:56:02.341Z,0.02
2023-08-27T02:57:02.527Z,0.00
2023-08-27T02:58:01.579Z,0.00
2023-08-27T02:59:01.728Z,0.00
2023-08-27T03:00:01.922Z,0.00
2023-08-27T03:01:02.022Z,0.00
2023-08-27T03:02:02.252Z,0.00
2023-08-27T03:03:02.850Z,0.00
2023-08-27T03:04:02.510Z,0.00
2023-08-27T03:05:01.612Z,0.00
2023-08-27T03:06:01.785Z,0.02
2023-08-27T03:07:01.938Z,0.02
2023-08-27T03:08:02.127Z,0.00
2023-08-27T03:09:02.227Z,0.00
2023-08-27T03:10:02.472Z,0.00
2023-08-27T03:11:01.533Z,0.00
2023-08-27T03:12:01.723Z,0.00
2023-08-27T03:13:01.911Z,0.00
2023-08-27T03:14:02.027Z,0.00
2023-08-27T03:15:02.182Z,0.02
2023-08-27T03:16:02.379Z,0.00
2023-08-27T03:17:01.473Z,0.00
2023-08-27T03:18:01.621Z,0.00
2023-08-27T03:19:01.753Z,0.00
2023-08-27T03:20:01.859Z,0.00
2023-08-27T03:21:02.033Z,0.00
2023-08-27T03:22:02.173Z,0.00
2023-08-27T03:23:01.557Z,0.00
2023-08-27T03:24:01.438Z,0.02
2023-08-27T03:25:01.575Z,0.02
2023-08-27T03:26:01.757Z,0.02
2023-08-27T03:27:01.928Z,0.00
2023-08-27T03:28:02.105Z,0.02
2023-08-27T03:29:02.161Z,0.02
2023-08-27T03:30:02.315Z,0.00
2023-08-27T03:31:01.508Z,0.00
2023-08-27T03:32:01.794Z,0.02
2023-08-27T03:33:02.171Z,0.00
2023-08-27T03:34:02.087Z,0.02
2023-08-27T03:35:01.098Z,0.02
2023-08-27T03:36:01.326Z,0.02
2023-08-27T03:37:01.477Z,0.00
2023-08-27T03:38:01.625Z,0.00
2023-08-27T03:39:01.801Z,0.00
2023-08-27T03:40:01.929Z,0.00
2023-08-27T03:41:01.070Z,0.00
2023-08-27T03:42:01.223Z,0.00
2023-08-27T03:43:02.699Z,0.00
2023-08-27T03:44:01.547Z,0.00
2023-08-27T03:45:01.681Z,0.00
2023-08-27T03:46:01.912Z,0.00
2023-08-27T03:47:00.924Z,0.00
2023-08-27T03:48:01.139Z,0.02
2023-08-27T03:49:01.257Z,0.02
2023-08-27T03:50:01.462Z,0.02
2023-08-27T03:51:01.586Z,0.02
2023-08-27T03:52:02.673Z,0.02
2023-08-27T03:53:02.016Z,0.01
2023-08-27T03:54:01.933Z,0.01
2023-08-27T03:55:02.103Z,0.01
2023-08-27T03:56:02.271Z,0.01
2023-08-27T03:57:01.494Z,0.05
2023-08-27T03:58:01.622Z,0.03
2023-08-27T03:59:01.801Z,0.03
2023-08-27T04:00:00.924Z,0.02
2023-08-27T04:01:01.116Z,0.05
2023-08-27T04:02:01.303Z,0.08
2023-08-27T04:03:02.749Z,0.06
2023-08-27T04:04:01.633Z,0.04
2023-08-27T04:05:00.709Z,0.03
2023-08-27T04:06:01.802Z,0.10
2023-08-27T04:07:01.023Z,0.11
2023-08-27T04:08:01.201Z,0.22
2023-08-27T04:09:02.286Z,0.31
2023-08-27T04:10:01.503Z,0.30
2023-08-27T04:11:01.612Z,0.35
2023-08-27T04:12:00.740Z,0.32
2023-08-27T04:13:01.229Z,0.52
2023-08-27T04:14:01.107Z,0.52
2023-08-27T04:15:01.289Z,0.69
2023-08-27T04:16:01.466Z,0.78
2023-08-27T04:17:00.571Z,0.84
2023-08-27T04:18:00.711Z,0.87
2023-08-27T04:19:00.839Z,1.10
2023-08-27T04:20:01.007Z,1.16
2023-08-27T04:21:01.140Z,1.33
2023-08-27T04:22:01.308Z,1.82
2023-08-27T04:23:01.797Z,1.75
2023-08-27T04:24:00.565Z,2.00
2023-08-27T04:25:00.782Z,2.36
2023-08-27T04:26:00.869Z,2.76
2023-08-27T04:27:01.093Z,3.18
2023-08-27T04:28:01.169Z,3.57
2023-08-27T04:29:01.312Z,4.32
2023-08-27T04:30:00.436Z,5.03
2023-08-27T04:31:00.690Z,6.09
2023-08-27T04:32:00.770Z,6.59
2023-08-27T04:33:01.163Z,7.56
2023-08-27T04:34:01.077Z,8.62
2023-08-27T04:35:01.194Z,9.04
2023-08-27T04:36:00.344Z,10.67
2023-08-27T04:37:00.528Z,11.75
2023-08-27T04:38:00.647Z,12.78
2023-08-27T04:39:00.797Z,14.08
2023-08-27T04:40:01.063Z,15.18
2023-08-27T04:41:01.119Z,15.87
2023-08-27T04:42:00.269Z,16.24
2023-08-27T04:43:00.845Z,16.61
2023-08-27T04:44:00.589Z,17.79
2023-08-27T04:45:01.656Z,18.73
2023-08-27T04:46:01.871Z,19.75
2023-08-27T04:47:01.036Z,20.32
2023-08-27T04:48:01.584Z,20.09
2023-08-27T04:49:00.317Z,19.26
2023-08-27T04:50:00.454Z,18.09
2023-08-27T04:51:00.595Z,17.74
2023-08-27T04:52:00.756Z,18.48
2023-08-27T04:53:00.916Z,19.91
2023-08-27T04:54:01.054Z,22.15
2023-08-27T04:55:00.341Z,23.95
2023-08-27T04:56:00.331Z,27.64
2023-08-27T04:57:00.496Z,30.74
2023-08-27T04:58:01.029Z,33.97
2023-08-27T04:59:00.787Z,36.66
2023-08-27T05:00:00.974Z,39.47
2023-08-27T05:01:01.014Z,42.01
2023-08-27T05:02:00.247Z,44.68
2023-08-27T05:03:00.414Z,47.56
2023-08-27T05:04:00.485Z,50.86
2023-08-27T05:05:00.633Z,54.45
2023-08-27T05:06:00.789Z,58.48
2023-08-27T05:06:59.897Z,62.39
2023-08-27T05:08:00.223Z,66.79
2023-08-27T05:09:01.151Z,71.18
2023-08-27T05:10:01.312Z,75.84
2023-08-27T05:11:00.525Z,79.03
2023-08-27T05:12:00.694Z,81.80
2023-08-27T05:13:00.830Z,83.45
2023-08-27T05:13:59.919Z,82.80
2023-08-27T05:15:00.039Z,81.36
2023-08-27T05:16:00.266Z,78.27
2023-08-27T05:17:00.412Z,75.26
2023-08-27T05:18:00.967Z,72.44
2023-08-27T05:19:00.764Z,70.65
2023-08-27T05:19:59.804Z,68.92
2023-08-27T05:20:59.979Z,68.25
2023-08-27T05:22:00.114Z,66.14
2023-08-27T05:23:00.292Z,67.28
2023-08-27T05:24:00.481Z,72.27
2023-08-27T05:25:00.577Z,80.89
2023-08-27T05:26:00.703Z,89.42
2023-08-27T05:26:59.878Z,95.31
2023-08-27T05:28:00.196Z,102.15
2023-08-27T05:29:00.197Z,109.48
2023-08-27T05:30:00.379Z,115.36
2023-08-27T05:31:00.556Z,121.78
2023-08-27T05:31:59.613Z,125.85
2023-08-27T05:33:00.721Z,127.22
2023-08-27T05:33:59.812Z,126.11
2023-08-27T05:34:59.958Z,122.89
2023-08-27T05:36:00.096Z,117.60
2023-08-27T05:37:00.251Z,110.78
2023-08-27T05:38:00.685Z,102.85
2023-08-27T05:39:00.413Z,95.89
2023-08-27T05:39:59.637Z,91.82
2023-08-27T05:40:59.901Z,91.10
2023-08-27T05:41:59.971Z,92.71
2023-08-27T05:43:00.139Z,94.44
2023-08-27T05:44:00.350Z,96.34
2023-08-27T05:45:00.598Z,99.71
2023-08-27T05:45:59.540Z,103.93
2023-08-27T05:46:59.710Z,107.62
2023-08-27T05:48:00.106Z,110.60
2023-08-27T05:49:00.757Z,114.35
2023-08-27T05:49:59.945Z,119.96
2023-08-27T05:51:00.042Z,127.22
2023-08-27T05:52:00.191Z,134.19
2023-08-27T05:52:59.250Z,140.50
2023-08-27T05:54:00.323Z,144.84
2023-08-27T05:54:59.487Z,147.14
2023-08-27T05:55:59.738Z,152.45
2023-08-27T05:56:59.766Z,157.48
2023-08-27T05:58:00.071Z,164.41
2023-08-27T05:59:00.134Z,167.58
2023-08-27T06:00:01.100Z,170.04
2023-08-27T06:00:59.352Z,177.06
2023-08-27T06:01:59.435Z,178.59
2023-08-27T06:03:00.516Z,174.32
2023-08-27T06:03:59.703Z,172.47
2023-08-27T06:04:59.754Z,172.06
2023-08-27T06:05:59.898Z,167.23
2023-08-27T06:07:00.030Z,165.66
2023-08-27T06:07:59.399Z,157.77
2023-08-27T06:08:59.272Z,149.40
2023-08-27T06:09:59.420Z,139.65
2023-08-27T06:10:59.506Z,130.23
2023-08-27T06:11:59.673Z,119.36
2023-08-27T06:13:00.089Z,107.42
2023-08-27T06:13:59.905Z,109.62
2023-08-27T06:15:00.992Z,111.97
2023-08-27T06:15:59.170Z,110.89
2023-08-27T06:16:59.264Z,117.63
2023-08-27T06:17:59.762Z,123.55
2023-08-27T06:18:59.589Z,130.02
2023-08-27T06:19:59.669Z,138.76
2023-08-27T06:20:59.800Z,147.72
2023-08-27T06:21:58.916Z,161.33
2023-08-27T06:22:59.048Z,183.20
2023-08-27T06:23:59.177Z,205.38
2023-08-27T06:25:00.903Z,209.62
2023-08-27T06:25:59.466Z,196.98
2023-08-27T06:26:59.663Z,172.59
2023-08-27T06:27:59.971Z,148.49
2023-08-27T06:28:58.888Z,145.44
2023-08-27T06:29:59.023Z,142.98
2023-08-27T06:30:59.128Z,143.31
2023-08-27T06:32:00.255Z,131.92
2023-08-27T06:32:59.601Z,131.10
2023-08-27T06:34:00.547Z,150.49
2023-08-27T06:34:59.660Z,161.70
2023-08-27T06:35:59.794Z,161.30
2023-08-27T06:36:58.967Z,152.14
2023-08-27T06:37:59.522Z,136.96
2023-08-27T06:38:59.259Z,124.07
2023-08-27T06:39:59.345Z,123.48
2023-08-27T06:41:00.438Z,131.14
2023-08-27T06:41:59.871Z,139.90
2023-08-27T06:42:58.726Z,146.18
2023-08-27T06:43:58.815Z,153.32
2023-08-27T06:44:58.981Z,166.49
2023-08-27T06:45:59.169Z,180.36
2023-08-27T06:47:00.182Z,193.20
2023-08-27T06:48:00.879Z,205.90
2023-08-27T06:48:59.468Z,216.36
2023-08-27T06:49:58.567Z,224.12
2023-08-27T06:50:58.726Z,233.64
2023-08-27T06:51:58.836Z,241.62
2023-08-27T06:52:58.972Z,245.97
2023-08-27T06:54:00.103Z,263.34
2023-08-27T06:54:59.286Z,314.61
2023-08-27T06:56:00.379Z,368.46
2023-08-27T06:56:58.520Z,416.83
2023-08-27T06:57:58.920Z,475.94
2023-08-27T06:58:58.783Z,518.15
2023-08-27T06:59:58.947Z,564.24
2023-08-27T07:00:59.129Z,593.95
2023-08-27T07:02:00.137Z,626.05
2023-08-27T07:02:59.477Z,643.61
2023-08-27T07:03:58.469Z,655.32
2023-08-27T07:04:58.587Z,646.66
2023-08-27T07:05:59.638Z,639.74
2023-08-27T07:06:58.801Z,631.13
2023-08-27T07:07:59.378Z,585.57
2023-08-27T07:08:59.115Z,547.59
2023-08-27T07:09:59.244Z,506.39
2023-08-27T07:10:58.359Z,475.47
2023-08-27T07:11:58.485Z,447.78
2023-08-27T07:12:58.614Z,424.31
2023-08-27T07:13:58.822Z,472.66
2023-08-27T07:14:59.833Z,460.67
2023-08-27T07:16:00.006Z,456.10
2023-08-27T07:16:59.285Z,396.89
2023-08-27T07:17:58.544Z,419.31
2023-08-27T07:18:59.476Z,440.12
2023-08-27T07:19:58.503Z,455.53
2023-08-27T07:20:58.632Z,464.96
2023-08-27T07:21:58.761Z,476.25
2023-08-27T07:22:58.930Z,483.89
2023-08-27T07:23:58.988Z,492.20
2023-08-27T07:24:58.104Z,502.23
2023-08-27T07:25:59.183Z,516.13
2023-08-27T07:26:58.354Z,529.13
2023-08-27T07:27:58.703Z,540.66
2023-08-27T07:28:58.606Z,557.72
2023-08-27T07:29:58.745Z,576.32
2023-08-27T07:30:58.930Z,672.90
2023-08-27T07:31:59.179Z,688.96
2023-08-27T07:32:58.162Z,703.94
2023-08-27T07:33:59.177Z,720.70
2023-08-27T07:34:58.375Z,745.29
2023-08-27T07:35:58.469Z,758.72
2023-08-27T07:36:58.611Z,717.80
2023-08-27T07:37:59.921Z,773.30
2023-08-27T07:38:59.809Z,698.65
2023-08-27T07:39:58.039Z,737.63
2023-08-27T07:40:58.113Z,768.70
2023-08-27T07:41:58.229Z,782.17
2023-08-27T07:42:59.323Z,782.39
2023-08-27T07:43:58.492Z,794.45
2023-08-27T07:44:58.661Z,771.35
2023-08-27T07:45:59.706Z,781.75
2023-08-27T07:46:57.904Z,761.40
2023-08-27T07:47:58.242Z,779.41
2023-08-27T07:48:58.166Z,758.03
2023-08-27T07:49:58.328Z,734.63
2023-08-27T07:50:58.438Z,729.21
2023-08-27T07:51:59.516Z,762.61
2023-08-27T07:52:58.784Z,708.39
2023-08-27T07:53:58.763Z,747.97
2023-08-27T07:54:57.951Z,827.44
2023-08-27T07:55:58.059Z,782.49
2023-08-27T07:56:59.137Z,734.14
2023-08-27T07:57:59.610Z,749.46
2023-08-27T07:58:58.409Z,789.90
2023-08-27T07:59:58.580Z,776.85
2023-08-27T08:00:58.648Z,757.04
2023-08-27T08:01:57.767Z,780.57
2023-08-27T08:02:58.978Z,760.63
2023-08-27T08:03:58.077Z,792.15
2023-08-27T08:04:58.127Z,838.27
2023-08-27T08:05:58.307Z,856.49
2023-08-27T08:06:59.352Z,812.21
2023-08-27T08:07:59.121Z,792.73
2023-08-27T08:08:57.609Z,788.42
2023-08-27T08:09:57.706Z,824.18
2023-08-27T08:10:57.843Z,760.71
2023-08-27T08:11:58.064Z,748.34
2023-08-27T08:12:58.123Z,736.37
2023-08-27T08:13:58.258Z,685.21
2023-08-27T08:14:58.309Z,710.15
2023-08-27T08:15:57.378Z,700.73
2023-08-27T08:16:57.734Z,690.20
2023-08-27T08:17:57.654Z,693.81
2023-08-27T08:18:57.752Z,655.67
2023-08-27T08:19:57.850Z,641.93
2023-08-27T08:20:57.969Z,636.20
2023-08-27T08:22:00.133Z,628.59
2023-08-27T08:22:58.246Z,645.68
2023-08-27T08:23:57.359Z,632.91
2023-08-27T08:24:57.457Z,634.26
2023-08-27T08:25:57.590Z,623.87
2023-08-27T08:26:57.693Z,644.94
2023-08-27T08:27:58.197Z,641.89
2023-08-27T08:28:57.961Z,634.10
2023-08-27T08:29:58.106Z,646.38
2023-08-27T08:30:57.250Z,664.11
2023-08-27T08:31:57.366Z,655.86
2023-08-27T08:32:57.510Z,661.73
2023-08-27T08:33:57.578Z,662.73
2023-08-27T08:34:57.708Z,673.30
2023-08-27T08:35:57.851Z,684.32
2023-08-27T08:36:57.958Z,668.97
2023-08-27T08:37:58.432Z,669.68
2023-08-27T08:38:57.196Z,679.86
2023-08-27T08:39:57.367Z,697.31
2023-08-27T08:40:57.478Z,693.38
2023-08-27T08:41:57.581Z,719.07
2023-08-27T08:42:57.772Z,704.69
2023-08-27T08:43:57.832Z,697.09
2023-08-27T08:44:57.988Z,710.36
2023-08-27T08:45:57.130Z,663.93
2023-08-27T08:46:57.280Z,644.59
2023-08-27T08:47:57.419Z,632.16
2023-08-27T08:48:57.514Z,645.58
2023-08-27T08:49:57.591Z,649.56
2023-08-27T08:50:57.753Z,643.73
2023-08-27T08:51:57.864Z,640.05
2023-08-27T08:52:56.942Z,624.38
2023-08-27T08:53:57.055Z,609.79
2023-08-27T08:54:57.198Z,597.79
2023-08-27T08:55:57.356Z,594.88
2023-08-27T08:56:57.490Z,593.95
2023-08-27T08:57:58.922Z,593.61
2023-08-27T08:58:57.721Z,587.74
2023-08-27T08:59:56.812Z,575.42
2023-08-27T09:00:56.967Z,569.83
2023-08-27T09:01:58.071Z,568.47
2023-08-27T09:02:57.309Z,562.14
2023-08-27T09:03:57.991Z,553.14
2023-08-27T09:04:57.432Z,545.64
2023-08-27T09:05:57.579Z,539.86
2023-08-27T09:06:57.638Z,535.12
2023-08-27T09:07:56.792Z,526.69
2023-08-27T09:08:56.884Z,511.97
2023-08-27T09:09:57.979Z,500.72
2023-08-27T09:10:57.169Z,496.90
2023-08-27T09:11:57.286Z,496.74
2023-08-27T09:12:57.544Z,494.30
2023-08-27T09:13:57.559Z,494.64
2023-08-27T09:14:56.656Z,500.61
2023-08-27T09:15:56.803Z,507.85
2023-08-27T09:16:56.918Z,507.08
2023-08-27T09:17:57.034Z,499.78
2023-08-27T09:18:57.163Z,494.52
2023-08-27T09:19:58.264Z,499.70
2023-08-27T09:20:58.366Z,511.11
2023-08-27T09:21:56.564Z,520.62
2023-08-27T09:22:56.644Z,526.96
2023-08-27T09:23:56.730Z,535.21
2023-08-27T09:24:56.853Z,541.35
2023-08-27T09:25:56.999Z,538.01
2023-08-27T09:26:57.080Z,532.34
2023-08-27T09:27:57.151Z,535.81
2023-08-27T09:28:57.262Z,543.17
2023-08-27T09:29:57.338Z,549.24
2023-08-27T09:30:56.460Z,554.52
2023-08-27T09:31:56.587Z,558.93
2023-08-27T09:32:56.715Z,559.60
2023-08-27T09:33:56.792Z,556.19
2023-08-27T09:34:56.949Z,552.60
2023-08-27T09:35:57.052Z,553.43
2023-08-27T09:36:57.157Z,554.47
2023-08-27T09:37:57.270Z,552.87
2023-08-27T09:38:56.353Z,549.29
2023-08-27T09:39:56.528Z,547.64
2023-08-27T09:40:56.592Z,556.31
2023-08-27T09:41:56.706Z,559.28
2023-08-27T09:42:56.830Z,562.56
2023-08-27T09:43:56.954Z,564.75
2023-08-27T09:44:57.078Z,571.48
2023-08-27T09:45:56.176Z,564.98
2023-08-27T09:46:56.281Z,570.53
2023-08-27T09:47:56.411Z,583.40
2023-08-27T09:48:56.478Z,595.59
2023-08-27T09:49:56.628Z,611.43
2023-08-27T09:50:56.703Z,624.61
2023-08-27T09:51:57.034Z,639.43
2023-08-27T09:52:56.895Z,662.10
2023-08-27T09:53:56.994Z,689.61
2023-08-27T09:54:56.038Z,713.21
2023-08-27T09:55:56.179Z,735.53
2023-08-27T09:56:56.281Z,754.02
2023-08-27T09:57:56.476Z,764.95
2023-08-27T09:58:56.549Z,766.87
2023-08-27T09:59:56.639Z,773.10
2023-08-27T10:00:56.758Z,780.29
2023-08-27T10:01:57.780Z,779.84
2023-08-27T10:02:56.905Z,783.54
2023-08-27T10:03:56.063Z,783.07
2023-08-27T10:04:56.292Z,786.77
2023-08-27T10:05:57.226Z,792.13
2023-08-27T10:06:56.357Z,803.66
2023-08-27T10:07:56.479Z,816.03
2023-08-27T10:08:56.623Z,830.68
2023-08-27T10:09:56.682Z,845.40
2023-08-27T10:10:56.903Z,847.00
2023-08-27T10:11:56.002Z,846.31
2023-08-27T10:12:56.003Z,853.92
2023-08-27T10:13:56.156Z,852.91
2023-08-27T10:14:56.268Z,846.27
2023-08-27T10:15:56.387Z,851.19
2023-08-27T10:16:56.488Z,859.64
2023-08-27T10:17:56.592Z,856.03
2023-08-27T10:18:57.643Z,861.30
2023-08-27T10:19:55.749Z,882.37
2023-08-27T10:20:55.868Z,898.60
2023-08-27T10:21:56.014Z,908.50
2023-08-27T10:22:56.074Z,904.01
2023-08-27T10:23:56.194Z,915.88
2023-08-27T10:24:56.285Z,897.62
2023-08-27T10:25:56.428Z,899.32
2023-08-27T10:26:56.512Z,848.72
2023-08-27T10:27:57.628Z,963.63
2023-08-27T10:28:55.756Z,916.69
2023-08-27T10:29:55.795Z,921.72
2023-08-27T10:30:55.861Z,909.05
2023-08-27T10:31:55.959Z,921.04
2023-08-27T10:32:57.080Z,898.22
2023-08-27T10:33:56.322Z,1097.37
2023-08-27T10:34:57.254Z,1322.93
2023-08-27T10:35:57.328Z,1368.20
2023-08-27T10:36:57.068Z,1215.28
2023-08-27T10:37:56.551Z,1122.79
2023-08-27T10:38:55.609Z,1216.80
2023-08-27T10:39:55.742Z,1321.27
2023-08-27T10:40:55.823Z,1312.96
2023-08-27T10:41:55.930Z,1281.45
2023-08-27T10:42:56.097Z,986.22
2023-08-27T10:43:57.107Z,1068.51
2023-08-27T10:44:57.244Z,1031.36
2023-08-27T10:45:56.346Z,1121.01
2023-08-27T10:46:56.424Z,1206.52
2023-08-27T10:47:55.604Z,1297.98
2023-08-27T10:48:56.612Z,1472.94
2023-08-27T10:49:55.810Z,1225.91
2023-08-27T10:50:55.837Z,1117.44
2023-08-27T10:51:55.926Z,1048.23
2023-08-27T10:52:56.056Z,976.93
2023-08-27T10:53:56.131Z,1401.65
2023-08-27T10:54:56.217Z,1037.59
2023-08-27T10:55:55.259Z,1233.29
2023-08-27T10:56:56.358Z,1392.38
2023-08-27T10:57:55.448Z,1265.14
2023-08-27T10:58:55.578Z,1254.35
2023-08-27T10:59:55.701Z,1304.20
2023-08-27T11:00:55.787Z,883.21
2023-08-27T11:01:55.959Z,907.45
2023-08-27T11:02:57.005Z,925.84
2023-08-27T11:03:56.114Z,919.57
2023-08-27T11:04:56.176Z,878.73
2023-08-27T11:05:56.281Z,743.54
2023-08-27T11:06:55.451Z,1308.57
2023-08-27T11:07:55.654Z,1174.49
2023-08-27T11:08:56.638Z,898.50
2023-08-27T11:09:56.738Z,984.48
2023-08-27T11:10:56.923Z,1085.31
2023-08-27T11:11:56.016Z,1098.80
2023-08-27T11:12:55.056Z,1092.66
2023-08-27T11:13:56.097Z,1066.72
2023-08-27T11:14:55.286Z,1048.45
2023-08-27T11:15:56.303Z,1026.64
2023-08-27T11:16:55.663Z,1036.14
2023-08-27T11:17:55.599Z,1055.29
2023-08-27T11:18:55.641Z,1012.25
2023-08-27T11:19:55.746Z,932.09
2023-08-27T11:20:55.815Z,961.08
2023-08-27T11:21:54.918Z,950.99
2023-08-27T11:22:55.012Z,838.50
2023-08-27T11:23:55.090Z,1576.15
2023-08-27T11:24:56.291Z,1547.78
2023-08-27T11:25:55.353Z,823.38
2023-08-27T11:26:56.341Z,1422.87
2023-08-27T11:27:55.535Z,836.52
2023-08-27T11:28:55.599Z,866.52
2023-08-27T11:29:56.735Z,802.62
2023-08-27T11:30:55.771Z,849.38
2023-08-27T11:31:54.821Z,932.80
2023-08-27T11:32:54.968Z,1027.52
2023-08-27T11:33:55.015Z,897.98
2023-08-27T11:34:55.062Z,938.40
2023-08-27T11:35:56.108Z,961.26
2023-08-27T11:36:55.356Z,830.77
2023-08-27T11:37:56.323Z,838.00
2023-08-27T11:38:55.472Z,826.30
2023-08-27T11:39:55.565Z,946.46
2023-08-27T11:40:55.098Z,886.41
2023-08-27T11:41:54.744Z,854.00
2023-08-27T11:42:54.792Z,781.77
2023-08-27T11:43:55.820Z,777.96
2023-08-27T11:44:54.923Z,938.38
2023-08-27T11:45:54.992Z,907.97
2023-08-27T11:46:55.105Z,1002.47
2023-08-27T11:47:55.172Z,1125.08
2023-08-27T11:48:55.241Z,959.09
2023-08-27T11:49:55.302Z,745.00
2023-08-27T11:50:55.440Z,703.71
2023-08-27T11:51:55.475Z,630.78
2023-08-27T11:52:55.550Z,566.14
2023-08-27T11:53:54.677Z,546.03
2023-08-27T11:54:54.702Z,525.70
2023-08-27T11:55:54.785Z,514.71
2023-08-27T11:56:55.854Z,490.86
2023-08-27T11:57:54.978Z,457.11
2023-08-27T11:58:55.091Z,443.79
2023-08-27T11:59:55.144Z,469.40
2023-08-27T12:00:57.849Z,533.08
2023-08-27T12:01:55.289Z,574.84
2023-08-27T12:02:54.380Z,581.61
2023-08-27T12:03:55.380Z,553.66
2023-08-27T12:04:54.508Z,553.65
2023-08-27T12:05:54.562Z,585.89
2023-08-27T12:06:57.884Z,606.93
2023-08-27T12:07:54.719Z,606.05
2023-08-27T12:08:55.741Z,714.93
2023-08-27T12:09:54.900Z,855.93
2023-08-27T12:10:55.924Z,972.12
2023-08-27T12:11:55.392Z,1060.68
2023-08-27T12:12:55.100Z,1096.84
2023-08-27T12:13:55.232Z,1124.70
2023-08-27T12:14:55.256Z,1171.45
2023-08-27T12:15:54.354Z,1248.75
2023-08-27T12:16:55.475Z,1328.15
2023-08-27T12:17:55.657Z,1338.39
2023-08-27T12:18:54.669Z,1393.34
2023-08-27T12:19:54.795Z,1411.93
2023-08-27T12:20:54.910Z,1424.39
2023-08-27T12:21:55.006Z,1435.65
2023-08-27T12:22:55.258Z,1445.17
2023-08-27T12:23:55.118Z,1439.04
2023-08-27T12:24:54.269Z,1400.49
2023-08-27T12:25:54.502Z,1465.21
2023-08-27T12:26:55.410Z,1453.37
2023-08-27T12:27:55.532Z,1382.56
2023-08-27T12:28:56.613Z,1408.19
2023-08-27T12:29:55.718Z,1410.00
2023-08-27T12:30:55.821Z,1410.72
2023-08-27T12:31:54.858Z,1392.09
2023-08-27T12:32:54.086Z,1398.40
2023-08-27T12:33:54.012Z,1340.30
2023-08-27T12:34:55.080Z,1327.38
2023-08-27T12:35:54.222Z,1288.46
2023-08-27T12:36:54.264Z,1457.74
2023-08-27T12:37:54.369Z,1241.00
2023-08-27T12:38:55.397Z,1342.21
2023-08-27T12:39:55.528Z,1332.72
2023-08-27T12:40:54.612Z,1339.28
2023-08-27T12:41:54.661Z,1550.45
2023-08-27T12:42:54.820Z,1557.19
2023-08-27T12:43:54.818Z,1432.18
2023-08-27T12:44:53.839Z,1471.29